Time;durP1;ratioP1;P1;durP2;ratioP2;P2;SDS_P1;SDS_P2;PMS_P1;PMS_P2;Temp;Humidity;BMP_temperature;BMP_pressure;BME280_temperature;BME280_humidity;BME280_pressure;Samples;Min_cycle;Max_cycle;Signal;HPM_P1;HPM_P2
2021/12/29 00:02:09;;;;;;;8.95;4.90;;;;;;;;;;5073755;28;20025;-65
2021/12/29 00:04:34;;;;;;;6.82;3.55;;;;;;;;;;5073423;28;20107;-66
2021/12/29 00:07:00;;;;;;;9.20;3.65;;;;;;;;;;5073513;28;20036;-65
2021/12/29 00:09:26;;;;;;;8.13;3.83;;;;;;;;;;5073434;28;20512;-65
2021/12/29 00:11:52;;;;;;;7.75;3.47;;;;;;;;;;5073326;28;20710;-65
2021/12/29 00:14:18;;;;;;;7.60;3.78;;;;;;;;;;5073201;28;20107;-65
2021/12/29 00:16:43;;;;;;;6.05;3.50;;;;;;;;;;5073058;28;20032;-65
2021/12/29 00:19:09;;;;;;;6.55;3.20;;;;;;;;;;5073241;28;20420;-65
2021/12/29 00:21:35;;;;;;;6.60;3.50;;;;;;;;;;5073112;28;20511;-65
2021/12/29 00:24:03;;;;;;;7.07;3.50;;;;;;;;;;5073401;28;20036;-65
2021/12/29 00:26:31;;;;;;;4.72;3.10;;;;;;;;;;5072974;28;20222;-65
2021/12/29 00:29:00;;;;;;;6.85;3.80;;;;;;;;;;5073264;28;20024;-65
2021/12/29 00:31:26;;;;;;;8.13;3.80;;;;;;;;;;5073149;28;20052;-65
2021/12/29 00:33:52;;;;;;;6.63;3.58;;;;;;;;;;5073160;28;20487;-66
2021/12/29 00:36:18;;;;;;;8.10;3.13;;;;;;;;;;5072623;28;20071;-65
2021/12/29 00:38:45;;;;;;;7.40;3.90;;;;;;;;;;5072751;28;20045;-65
2021/12/29 00:41:11;;;;;;;7.43;3.58;;;;;;;;;;5072876;28;20056;-65
2021/12/29 00:43:36;;;;;;;8.23;3.83;;;;;;;;;;5072727;28;20025;-66
2021/12/29 00:46:02;;;;;;;9.35;3.22;;;;;;;;;;5072716;28;20377;-65
2021/12/29 00:48:35;;;;;;;7.93;3.17;;;;;;;;;;5072792;28;20388;-65
2021/12/29 00:51:01;;;;;;;7.60;3.42;;;;;;;;;;5072524;28;20031;-66
2021/12/29 00:53:26;;;;;;;8.32;3.10;;;;;;;;;;5054652;28;20025;-65
2021/12/29 00:55:52;;;;;;;7.80;2.95;;;;;;;;;;5072654;28;20517;-66
2021/12/29 00:58:17;;;;;;;5.72;2.65;;;;;;;;;;5072301;28;20438;-65
2021/12/29 01:00:43;;;;;;;6.60;2.67;;;;;;;;;;5072450;28;20101;-65
2021/12/29 01:03:10;;;;;;;6.68;2.90;;;;;;;;;;5072577;28;20021;-66
2021/12/29 01:05:36;;;;;;;7.78;2.83;;;;;;;;;;5072255;28;20021;-65
2021/12/29 01:08:02;;;;;;;6.25;2.88;;;;;;;;;;5072409;28;20024;-65
2021/12/29 01:10:27;;;;;;;6.55;3.10;;;;;;;;;;5072376;28;20017;-65
2021/12/29 01:12:57;;;;;;;5.75;2.90;;;;;;;;;;5072214;28;20024;-65
2021/12/29 01:15:30;;;;;;;7.17;2.90;;;;;;;;;;5071980;28;20056;-65
2021/12/29 01:17:57;;;;;;;5.47;2.92;;;;;;;;;;5071886;28;20085;-65
2021/12/29 01:20:23;;;;;;;6.18;3.00;;;;;;;;;;5072071;28;20025;-65
2021/12/29 01:22:50;;;;;;;7.90;3.08;;;;;;;;;;5072018;28;20479;-65
2021/12/29 01:25:16;;;;;;;5.22;2.83;;;;;;;;;;5071692;28;20070;-65
2021/12/29 01:27:41;;;;;;;5.85;3.00;;;;;;;;;;5072118;28;20035;-65
2021/12/29 01:30:09;;;;;;;10.10;2.95;;;;;;;;;;5072015;28;20025;-65
2021/12/29 01:32:35;;;;;;;6.78;2.80;;;;;;;;;;5071980;28;20020;-65
2021/12/29 01:35:00;;;;;;;5.68;2.70;;;;;;;;;;5071628;28;20500;-70
2021/12/29 01:37:26;;;;;;;5.20;2.88;;;;;;;;;;5071552;28;20020;-65
2021/12/29 01:39:52;;;;;;;6.35;2.90;;;;;;;;;;5071158;28;20408;-65
2021/12/29 01:42:17;;;;;;;5.88;2.78;;;;;;;;;;5071759;28;20017;-65
2021/12/29 01:44:43;;;;;;;5.43;3.00;;;;;;;;;;5071547;28;20028;-65
2021/12/29 01:47:08;;;;;;;6.53;2.78;;;;;;;;;;5053507;28;20024;-65
2021/12/29 01:49:34;;;;;;;6.80;3.17;;;;;;;;;;5071587;28;20035;-65
2021/12/29 01:52:04;;;;;;;5.80;2.85;;;;;;;;;;5071525;28;20077;-65
2021/12/29 01:54:34;;;;;;;7.80;2.90;;;;;;;;;;5071380;28;20063;-65
2021/12/29 01:57:02;;;;;;;7.35;3.03;;;;;;;;;;5071187;28;20033;-65
2021/12/29 01:59:28;;;;;;;6.50;2.92;;;;;;;;;;5071255;28;20503;-66
2021/12/29 02:01:53;;;;;;;4.57;2.70;;;;;;;;;;5071360;28;20021;-65
2021/12/29 02:04:19;;;;;;;8.00;2.90;;;;;;;;;;5071239;28;20028;-65
2021/12/29 02:06:46;;;;;;;7.05;3.15;;;;;;;;;;5071132;28;20170;-65
2021/12/29 02:09:12;;;;;;;4.57;2.60;;;;;;;;;;5071073;28;20484;-65
2021/12/29 02:11:38;;;;;;;4.45;2.78;;;;;;;;;;5071197;28;20039;-65
2021/12/29 02:14:06;;;;;;;6.15;2.80;;;;;;;;;;5070990;28;20032;-65
2021/12/29 02:16:32;;;;;;;7.53;2.83;;;;;;;;;;5070913;28;20028;-65
2021/12/29 02:19:02;;;;;;;5.93;2.90;;;;;;;;;;5071101;28;20025;-65
2021/12/29 02:21:31;;;;;;;5.45;2.55;;;;;;;;;;5071025;28;20392;-65
2021/12/29 02:26:29;;;;;;;7.13;2.90;;;;;;;;;;5071060;28;20029;-65
2021/12/29 02:28:55;;;;;;;4.55;2.63;;;;;;;;;;5070777;28;20028;-65
2021/12/29 02:31:22;;;;;;;7.97;2.72;;;;;;;;;;5070975;28;20021;-65
2021/12/29 02:33:48;;;;;;;6.97;2.72;;;;;;;;;;5070896;28;20035;-65
2021/12/29 02:36:16;;;;;;;4.88;2.75;;;;;;;;;;5070395;28;20044;-65
2021/12/29 02:38:47;;;;;;;4.95;2.70;;;;;;;;;;5070756;28;20040;-65
2021/12/29 02:41:13;;;;;;;4.85;2.78;;;;;;;;;;5070715;28;20078;-65
2021/12/29 02:43:40;;;;;;;5.78;2.80;;;;;;;;;;5070634;28;20043;-65
2021/12/29 02:46:11;;;;;;;3.85;2.42;;;;;;;;;;5070480;28;20020;-65
2021/12/29 02:48:41;;;;;;;5.18;2.45;;;;;;;;;;5070725;28;20025;-65
2021/12/29 02:51:08;;;;;;;8.30;2.97;;;;;;;;;;5070100;28;20071;-65
2021/12/29 02:53:35;;;;;;;7.20;3.00;;;;;;;;;;5070382;28;20024;-65
2021/12/29 02:56:02;;;;;;;4.18;2.53;;;;;;;;;;5070456;28;20024;-66
2021/12/29 02:58:28;;;;;;;5.03;2.83;;;;;;;;;;5070166;28;20033;-65
2021/12/29 03:00:55;;;;;;;4.80;2.67;;;;;;;;;;5070578;28;20040;-65
2021/12/29 03:03:25;;;;;;;4.47;2.53;;;;;;;;;;5070369;28;20044;-66
2021/12/29 03:05:51;;;;;;;4.68;2.80;;;;;;;;;;5070771;28;20279;-65
2021/12/29 03:08:18;;;;;;;4.85;2.53;;;;;;;;;;5070731;28;20298;-65
2021/12/29 03:10:44;;;;;;;3.88;2.58;;;;;;;;;;5070749;28;20040;-65
2021/12/29 03:13:10;;;;;;;6.05;2.83;;;;;;;;;;5070354;28;20619;-65
2021/12/29 03:15:37;;;;;;;7.45;2.80;;;;;;;;;;5070413;28;20056;-65
2021/12/29 03:18:03;;;;;;;4.43;2.60;;;;;;;;;;5070079;28;20029;-65
2021/12/29 03:20:30;;;;;;;4.07;2.42;;;;;;;;;;5070510;28;20036;-65
2021/12/29 03:22:56;;;;;;;7.18;2.92;;;;;;;;;;5070264;28;20423;-65
2021/12/29 03:25:22;;;;;;;4.90;2.70;;;;;;;;;;5070305;28;20491;-65
2021/12/29 03:27:47;;;;;;;5.05;2.70;;;;;;;;;;5070010;28;20035;-66
2021/12/29 03:30:13;;;;;;;6.25;3.00;;;;;;;;;;5070405;28;20021;-65
2021/12/29 03:32:49;;;;;;;7.63;2.90;;;;;;;;;;5070152;28;20025;-65
2021/12/29 03:35:15;;;;;;;5.90;2.70;;;;;;;;;;5070170;28;20069;-66
2021/12/29 03:37:40;;;;;;;3.97;2.22;;;;;;;;;;5070200;28;20064;-65
2021/12/29 03:40:06;;;;;;;7.72;2.78;;;;;;;;;;5070135;28;20028;-66
2021/12/29 03:42:32;;;;;;;7.22;2.63;;;;;;;;;;5070118;28;20028;-65
2021/12/29 03:44:58;;;;;;;6.05;2.47;;;;;;;;;;5070114;28;20028;-65
2021/12/29 03:47:24;;;;;;;5.30;2.50;;;;;;;;;;5069845;28;20343;-66
2021/12/29 03:49:49;;;;;;;4.35;2.65;;;;;;;;;;5069897;28;20024;-65
2021/12/29 03:52:15;;;;;;;6.82;2.50;;;;;;;;;;5070045;28;20047;-65
2021/12/29 03:54:40;;;;;;;5.10;2.33;;;;;;;;;;5070120;28;20033;-65
2021/12/29 03:57:06;;;;;;;5.63;2.60;;;;;;;;;;5069962;28;20029;-65
2021/12/29 03:59:31;;;;;;;4.63;2.42;;;;;;;;;;5069755;28;20528;-65
2021/12/29 04:01:57;;;;;;;5.30;2.38;;;;;;;;;;5070009;28;20392;-65
2021/12/29 04:04:22;;;;;;;5.38;2.05;;;;;;;;;;5072790;28;20021;-65
2021/12/29 04:06:48;;;;;;;5.47;2.38;;;;;;;;;;5073827;28;20056;-65
2021/12/29 04:09:15;;;;;;;4.63;2.33;;;;;;;;;;5073747;28;20029;-65
2021/12/29 04:11:41;;;;;;;4.65;2.22;;;;;;;;;;5073628;28;20024;-65
2021/12/29 04:14:06;;;;;;;6.18;2.45;;;;;;;;;;5073258;28;20075;-65
2021/12/29 04:16:36;;;;;;;5.38;2.20;;;;;;;;;;5073245;28;20534;-65
2021/12/29 04:19:06;;;;;;;4.65;2.05;;;;;;;;;;5073402;28;20029;-65
2021/12/29 04:21:36;;;;;;;4.05;2.13;;;;;;;;;;5073337;28;20029;-65
2021/12/29 04:24:03;;;;;;;4.60;2.27;;;;;;;;;;5073377;28;20063;-65
2021/12/29 04:26:28;;;;;;;4.72;2.35;;;;;;;;;;5073079;28;20627;-65
2021/12/29 04:28:54;;;;;;;5.47;2.10;;;;;;;;;;5072968;28;20021;-65
2021/12/29 04:31:19;;;;;;;4.45;2.15;;;;;;;;;;5073166;28;20032;-65
2021/12/29 04:33:45;;;;;;;4.63;2.58;;;;;;;;;;5073086;28;20367;-65
2021/12/29 04:36:10;;;;;;;4.85;2.40;;;;;;;;;;5072848;28;20049;-65
2021/12/29 04:38:36;;;;;;;5.72;2.40;;;;;;;;;;5072703;28;20028;-65
2021/12/29 04:41:02;;;;;;;5.53;2.95;;;;;;;;;;5072870;28;20025;-65
2021/12/29 04:43:27;;;;;;;5.45;2.47;;;;;;;;;;5072849;28;20024;-65
2021/12/29 04:45:54;;;;;;;4.57;2.50;;;;;;;;;;5072969;28;20033;-65
2021/12/29 04:48:19;;;;;;;4.10;2.60;;;;;;;;;;5072511;28;20044;-66
2021/12/29 04:50:52;;;;;;;3.85;2.58;;;;;;;;;;5072695;28;20032;-65
2021/12/29 04:53:21;;;;;;;3.65;2.15;;;;;;;;;;5072992;28;20025;-65
2021/12/29 04:55:49;;;;;;;3.83;2.50;;;;;;;;;;5072774;28;20031;-65
2021/12/29 04:58:16;;;;;;;4.65;2.47;;;;;;;;;;5072346;28;20046;-65
2021/12/29 05:00:41;;;;;;;5.88;2.50;;;;;;;;;;5072636;28;20082;-65
2021/12/29 05:03:07;;;;;;;6.30;2.30;;;;;;;;;;5054556;28;20144;-65
2021/12/29 05:10:45;;;;;;;5.13;2.30;;;;;;;;;;5072783;28;20114;-65
2021/12/29 05:13:10;;;;;;;5.43;2.40;;;;;;;;;;5072167;28;20078;-65
2021/12/29 05:15:36;;;;;;;5.18;2.58;;;;;;;;;;5071196;28;20037;-65
2021/12/29 05:18:02;;;;;;;6.38;2.90;;;;;;;;;;5072051;28;20115;-65
2021/12/29 05:20:31;;;;;;;6.28;2.53;;;;;;;;;;5072247;28;20407;-65
2021/12/29 05:22:58;;;;;;;6.07;2.60;;;;;;;;;;5072222;28;20025;-65
2021/12/29 05:25:24;;;;;;;6.18;3.22;;;;;;;;;;5072119;28;20025;-65
2021/12/29 05:27:50;;;;;;;7.68;3.20;;;;;;;;;;5071875;28;20040;-65
2021/12/29 05:30:15;;;;;;;6.47;2.40;;;;;;;;;;5072076;28;20040;-65
2021/12/29 05:32:41;;;;;;;6.13;2.78;;;;;;;;;;5072202;28;20029;-65
2021/12/29 05:35:07;;;;;;;3.80;2.53;;;;;;;;;;5071840;28;20173;-66
2021/12/29 05:37:33;;;;;;;6.18;3.50;;;;;;;;;;5071727;28;20028;-65
2021/12/29 05:39:58;;;;;;;8.32;4.45;;;;;;;;;;5071856;28;20051;-65
2021/12/29 05:42:27;;;;;;;8.18;4.20;;;;;;;;;;5071781;28;20036;-65
2021/12/29 05:44:52;;;;;;;7.30;3.30;;;;;;;;;;5071978;28;20315;-65
2021/12/29 05:47:17;;;;;;;6.28;3.47;;;;;;;;;;5071516;28;20242;-66
2021/12/29 05:49:43;;;;;;;6.82;3.10;;;;;;;;;;5071583;28;20024;-65
2021/12/29 05:52:10;;;;;;;5.22;3.28;;;;;;;;;;5071511;28;20381;-65
2021/12/29 05:54:36;;;;;;;5.72;2.90;;;;;;;;;;5071650;28;20016;-65
2021/12/29 05:57:01;;;;;;;7.03;3.05;;;;;;;;;;5071408;28;20024;-68
2021/12/29 05:59:27;;;;;;;5.72;2.85;;;;;;;;;;5071281;28;20035;-65
2021/12/29 06:01:52;;;;;;;6.07;3.10;;;;;;;;;;5071401;28;20028;-65
2021/12/29 06:04:18;;;;;;;7.07;3.10;;;;;;;;;;5071434;28;20404;-65
2021/12/29 06:06:43;;;;;;;9.10;3.13;;;;;;;;;;5071112;28;20503;-65
2021/12/29 06:09:09;;;;;;;5.80;2.83;;;;;;;;;;5071132;28;20480;-65
2021/12/29 06:11:34;;;;;;;5.18;2.97;;;;;;;;;;5071360;28;20024;-65
2021/12/29 06:14:00;;;;;;;6.00;3.20;;;;;;;;;;5071074;28;20388;-65
2021/12/29 06:16:27;;;;;;;5.90;2.70;;;;;;;;;;5071444;28;20051;-65
2021/12/29 06:18:53;;;;;;;7.70;3.03;;;;;;;;;;5070945;28;20067;-65
2021/12/29 06:21:18;;;;;;;6.53;3.20;;;;;;;;;;5071044;28;20063;-65
2021/12/29 06:23:45;;;;;;;7.45;3.10;;;;;;;;;;5071013;28;20032;-65
2021/12/29 06:26:11;;;;;;;8.25;3.47;;;;;;;;;;5071255;28;20028;-65
2021/12/29 06:28:37;;;;;;;8.02;3.65;;;;;;;;;;5070644;28;20033;-65
2021/12/29 06:31:03;;;;;;;7.72;3.65;;;;;;;;;;5070910;28;20029;-65
2021/12/29 06:33:29;;;;;;;7.68;3.55;;;;;;;;;;5070858;28;20031;-65
2021/12/29 06:35:54;;;;;;;7.75;3.35;;;;;;;;;;5070845;28;20079;-65
2021/12/29 06:38:20;;;;;;;8.18;3.50;;;;;;;;;;5070549;28;20056;-65
2021/12/29 06:40:45;;;;;;;6.15;3.22;;;;;;;;;;5071030;28;20066;-65
2021/12/29 06:43:11;;;;;;;4.57;2.90;;;;;;;;;;5070656;28;20020;-65
2021/12/29 06:45:36;;;;;;;5.30;3.30;;;;;;;;;;5070866;28;20055;-65
2021/12/29 06:48:02;;;;;;;5.13;3.03;;;;;;;;;;5070436;28;20077;-65
2021/12/29 06:50:28;;;;;;;5.15;3.55;;;;;;;;;;5070547;28;20024;-65
2021/12/29 06:52:54;;;;;;;5.88;3.60;;;;;;;;;;5070758;28;20028;-65
2021/12/29 06:55:19;;;;;;;8.98;3.60;;;;;;;;;;5070577;28;20035;-65
2021/12/29 06:57:45;;;;;;;8.02;3.42;;;;;;;;;;5070262;28;20353;-65
2021/12/29 07:00:11;;;;;;;6.03;3.40;;;;;;;;;;5070425;28;20027;-65
2021/12/29 07:02:36;;;;;;;5.63;3.40;;;;;;;;;;5070497;28;20027;-65
2021/12/29 07:05:02;;;;;;;8.48;3.83;;;;;;;;;;5070552;28;20020;-65
2021/12/29 07:07:28;;;;;;;5.35;2.95;;;;;;;;;;5070092;28;20438;-76
2021/12/29 07:09:53;;;;;;;8.77;3.78;;;;;;;;;;5070448;28;20012;-65
2021/12/29 07:12:19;;;;;;;8.93;4.13;;;;;;;;;;5070248;28;20055;-65
2021/12/29 07:14:45;;;;;;;9.35;3.92;;;;;;;;;;5070263;28;20020;-65
2021/12/29 07:17:10;;;;;;;7.13;3.70;;;;;;;;;;5070274;28;20074;-65
2021/12/29 07:19:36;;;;;;;6.43;3.60;;;;;;;;;;5070170;28;20032;-65
2021/12/29 07:22:03;;;;;;;6.97;3.50;;;;;;;;;;5070338;28;20025;-65
2021/12/29 07:24:30;;;;;;;7.63;3.67;;;;;;;;;;5070184;28;20111;-65
2021/12/29 07:26:56;;;;;;;7.20;3.58;;;;;;;;;;5070358;28;20024;-65
2021/12/29 07:29:21;;;;;;;12.10;3.90;;;;;;;;;;5070146;28;20051;-65
2021/12/29 07:31:47;;;;;;;7.22;3.90;;;;;;;;;;5052173;28;20078;-65
2021/12/29 07:34:12;;;;;;;7.65;3.60;;;;;;;;;;5070090;28;20050;-65
2021/12/29 07:36:38;;;;;;;9.55;3.90;;;;;;;;;;5070130;28;20210;-65
2021/12/29 07:39:05;;;;;;;6.75;4.00;;;;;;;;;;5072458;28;20056;-65
2021/12/29 07:41:31;;;;;;;9.77;4.30;;;;;;;;;;5074513;28;20033;-66
2021/12/29 07:43:58;;;;;;;8.27;3.90;;;;;;;;;;5074041;28;20062;-65
2021/12/29 07:46:23;;;;;;;8.60;4.05;;;;;;;;;;5073993;28;20107;-65
2021/12/29 07:48:48;;;;;;;7.60;3.97;;;;;;;;;;5073774;28;20103;-65
2021/12/29 07:51:16;;;;;;;6.90;3.60;;;;;;;;;;5073943;28;20028;-65
2021/12/29 07:53:42;;;;;;;6.90;3.90;;;;;;;;;;5073948;28;20020;-65
2021/12/29 07:56:07;;;;;;;8.60;4.25;;;;;;;;;;5074121;28;20385;-65
2021/12/29 07:58:34;;;;;;;7.53;4.45;;;;;;;;;;5073325;28;20420;-65
2021/12/29 08:01:00;;;;;;;7.53;4.20;;;;;;;;;;5073837;28;20146;-65
2021/12/29 08:03:25;;;;;;;9.38;3.90;;;;;;;;;;5073536;28;20119;-65
2021/12/29 08:05:51;;;;;;;6.40;3.97;;;;;;;;;;5073554;28;20032;-66
2021/12/29 08:08:16;;;;;;;6.85;3.85;;;;;;;;;;5073303;28;20028;-65
2021/12/29 08:10:42;;;;;;;6.55;3.70;;;;;;;;;;5073604;28;20028;-65
2021/12/29 08:13:08;;;;;;;7.82;3.80;;;;;;;;;;5073306;28;20025;-66
2021/12/29 08:15:34;;;;;;;7.50;3.80;;;;;;;;;;5073399;28;20476;-65
2021/12/29 08:18:03;;;;;;;8.68;4.00;;;;;;;;;;5073245;28;20519;-65
2021/12/29 08:20:32;;;;;;;6.43;3.90;;;;;;;;;;5073478;28;20025;-65
2021/12/29 08:22:58;;;;;;;9.18;4.03;;;;;;;;;;5073280;28;20048;-66
2021/12/29 08:25:23;;;;;;;7.63;3.70;;;;;;;;;;5073326;28;20068;-66
2021/12/29 08:27:49;;;;;;;9.13;3.85;;;;;;;;;;5073016;28;20086;-67
2021/12/29 08:30:15;;;;;;;9.27;3.92;;;;;;;;;;5073025;28;20059;-65
2021/12/29 08:32:41;;;;;;;7.38;3.45;;;;;;;;;;5073248;28;20025;-65
2021/12/29 08:35:06;;;;;;;5.97;3.72;;;;;;;;;;5072953;28;20106;-66
2021/12/29 08:37:32;;;;;;;7.75;3.97;;;;;;;;;;5073033;28;20024;-65
2021/12/29 08:39:57;;;;;;;9.50;5.05;;;;;;;;;;5072808;28;20028;-66
2021/12/29 08:42:24;;;;;;;10.60;5.28;;;;;;;;;;5073049;28;20471;-65
2021/12/29 08:44:49;;;;;;;14.45;5.88;;;;;;;;;;5072872;28;20032;-65
2021/12/29 08:47:15;;;;;;;13.38;5.60;;;;;;;;;;5072694;28;20031;-65
2021/12/29 08:49:40;;;;;;;33.47;14.38;;;;;;;;;;5071288;28;20020;-65
2021/12/29 08:52:06;;;;;;;18.80;8.73;;;;;;;;;;5072781;28;20039;-66
2021/12/29 08:54:32;;;;;;;9.93;5.50;;;;;;;;;;5072856;28;20037;-66
2021/12/29 08:56:58;;;;;;;9.85;5.15;;;;;;;;;;5072580;28;20074;-66
2021/12/29 08:59:23;;;;;;;6.28;3.65;;;;;;;;;;5072380;28;20036;-66
2021/12/29 09:01:49;;;;;;;9.43;4.90;;;;;;;;;;5072588;28;20077;-66
2021/12/29 09:04:15;;;;;;;6.80;3.20;;;;;;;;;;5072463;28;20048;-66
2021/12/29 09:06:41;;;;;;;13.88;5.07;;;;;;;;;;5054661;28;20433;-66
2021/12/29 09:09:06;;;;;;;29.17;11.45;;;;;;;;;;5072367;28;20039;-65
2021/12/29 09:11:32;;;;;;;37.20;14.38;;;;;;;;;;5072381;28;20033;-65
2021/12/29 09:13:59;;;;;;;10.98;4.78;;;;;;;;;;5072128;28;20060;-65
2021/12/29 09:16:26;;;;;;;6.10;3.25;;;;;;;;;;5072188;28;20052;-65
2021/12/29 09:18:51;;;;;;;8.68;4.05;;;;;;;;;;5071907;28;20036;-65
2021/12/29 09:21:18;;;;;;;7.50;3.75;;;;;;;;;;5072186;28;20109;-65
2021/12/29 09:23:44;;;;;;;7.78;3.72;;;;;;;;;;5072029;28;20016;-66
2021/12/29 09:26:13;;;;;;;5.50;3.47;;;;;;;;;;5072212;28;20107;-66
2021/12/29 09:28:39;;;;;;;7.38;3.85;;;;;;;;;;5071832;28;20024;-65
2021/12/29 09:31:05;;;;;;;11.70;3.40;;;;;;;;;;5072154;28;20016;-66
2021/12/29 09:33:30;;;;;;;6.47;3.90;;;;;;;;;;5053986;28;20077;-65
2021/12/29 09:36:01;;;;;;;4.97;3.08;;;;;;;;;;5072059;28;20048;-66
2021/12/29 09:38:27;;;;;;;6.82;3.50;;;;;;;;;;5071903;28;20025;-75
2021/12/29 09:40:52;;;;;;;6.18;3.70;;;;;;;;;;5071687;28;20203;-65
2021/12/29 09:43:19;;;;;;;6.22;2.97;;;;;;;;;;5071898;28;20044;-66
2021/12/29 09:45:47;;;;;;;8.85;3.33;;;;;;;;;;5071770;28;20036;-65
2021/12/29 09:48:13;;;;;;;6.70;2.40;;;;;;;;;;5071542;28;20025;-65
2021/12/29 09:50:39;;;;;;;3.08;1.58;;;;;;;;;;5071319;28;20051;-65
2021/12/29 09:53:06;;;;;;;5.40;2.50;;;;;;;;;;5071471;28;20032;-66
2021/12/29 09:55:31;;;;;;;4.97;2.70;;;;;;;;;;5071359;28;20250;-66
2021/12/29 09:57:58;;;;;;;7.43;2.20;;;;;;;;;;5071206;28;20215;-66
2021/12/29 10:00:37;;;;;;;4.38;2.13;;;;;;;;;;5070704;28;20103;-66
2021/12/29 10:03:07;;;;;;;4.45;2.30;;;;;;;;;;5071187;28;20064;-66
2021/12/29 10:05:33;;;;;;;4.60;2.33;;;;;;;;;;5071488;28;20527;-66
2021/12/29 10:08:09;;;;;;;5.05;2.30;;;;;;;;;;5070982;28;20032;-66
2021/12/29 10:10:38;;;;;;;7.05;2.58;;;;;;;;;;5071296;28;20056;-66
2021/12/29 10:13:06;;;;;;;5.10;2.70;;;;;;;;;;5070830;28;20111;-66
2021/12/29 10:15:44;;;;;;;6.60;2.17;;;;;;;;;;5071334;28;20028;-65
2021/12/29 10:18:17;;;;;;;9.68;2.65;;;;;;;;;;5070916;28;20028;-65
2021/12/29 10:20:50;;;;;;;9.18;2.80;;;;;;;;;;5070776;28;20040;-66
2021/12/29 10:23:37;;;;;;;6.18;2.47;;;;;;;;;;5070836;28;20032;-66
2021/12/29 10:26:09;;;;;;;3.58;2.05;;;;;;;;;;5070962;28;20104;-66
2021/12/29 10:28:35;;;;;;;6.68;2.30;;;;;;;;;;5070570;28;20108;-66
2021/12/29 10:31:05;;;;;;;7.82;2.38;;;;;;;;;;5070761;28;20013;-66
2021/12/29 10:33:59;;;;;;;9.13;2.35;;;;;;;;;;5070754;28;20107;-66
2021/12/29 10:36:26;;;;;;;3.70;2.10;;;;;;;;;;5064656;28;20116;-66
2021/12/29 10:39:06;;;;;;;7.15;2.35;;;;;;;;;;5070562;28;20028;-73
2021/12/29 10:41:51;;;;;;;4.68;2.42;;;;;;;;;;5070420;28;20040;-66
2021/12/29 10:44:37;;;;;;;5.53;2.45;;;;;;;;;;5070958;28;20505;-66
2021/12/29 10:47:19;;;;;;;8.02;2.42;;;;;;;;;;5070541;28;20472;-66
2021/12/29 10:50:09;;;;;;;5.43;2.05;;;;;;;;;;5070525;28;20399;-66
2021/12/29 10:52:36;;;;;;;4.57;2.05;;;;;;;;;;5070347;28;20388;-66
2021/12/29 10:55:06;;;;;;;5.32;1.83;;;;;;;;;;5070729;28;20029;-66
2021/12/29 10:57:31;;;;;;;4.53;1.70;;;;;;;;;;5070815;28;20107;-66
2021/12/29 11:00:03;;;;;;;4.70;2.20;;;;;;;;;;5070238;28;20024;-66
2021/12/29 11:02:33;;;;;;;5.75;2.10;;;;;;;;;;5052894;28;20541;-66
2021/12/29 11:05:03;;;;;;;5.40;2.40;;;;;;;;;;5070438;28;20107;-66
2021/12/29 11:07:31;;;;;;;4.22;2.03;;;;;;;;;;5070390;28;20108;-66
2021/12/29 11:10:17;;;;;;;3.75;2.17;;;;;;;;;;5070324;28;20166;-66
2021/12/29 11:12:49;;;;;;;5.30;2.40;;;;;;;;;;5069684;28;20020;-66
2021/12/29 11:15:26;;;;;;;5.22;2.30;;;;;;;;;;5070306;28;20032;-66
2021/12/29 11:17:53;;;;;;;4.85;2.50;;;;;;;;;;5070264;28;20021;-66
2021/12/29 11:20:24;;;;;;;5.13;2.65;;;;;;;;;;5070056;28;20036;-65
2021/12/29 11:22:51;;;;;;;8.57;2.72;;;;;;;;;;5070280;28;20039;-66
2021/12/29 11:25:27;;;;;;;7.40;2.90;;;;;;;;;;5070245;28;20229;-66
2021/12/29 11:27:53;;;;;;;4.43;2.30;;;;;;;;;;5070099;28;20438;-66
2021/12/29 11:30:20;;;;;;;7.32;2.50;;;;;;;;;;5070158;28;20029;-66
2021/12/29 11:32:47;;;;;;;5.07;2.42;;;;;;;;;;5070160;28;20060;-66
2021/12/29 11:35:17;;;;;;;5.35;2.55;;;;;;;;;;5070035;28;20036;-66
2021/12/29 11:37:46;;;;;;;4.50;2.40;;;;;;;;;;5070094;28;20044;-66
2021/12/29 11:40:15;;;;;;;6.05;2.60;;;;;;;;;;5069839;28;20029;-66
2021/12/29 11:42:41;;;;;;;5.95;2.70;;;;;;;;;;5070111;28;20093;-66
2021/12/29 11:45:09;;;;;;;8.02;2.47;;;;;;;;;;5069970;28;20021;-66
2021/12/29 11:47:35;;;;;;;5.97;2.72;;;;;;;;;;5070068;28;20440;-66
2021/12/29 11:50:02;;;;;;;10.05;3.42;;;;;;;;;;5069810;28;20060;-66
2021/12/29 11:52:45;;;;;;;5.05;2.40;;;;;;;;;;5069982;28;20054;-65
2021/12/29 11:55:21;;;;;;;4.57;2.25;;;;;;;;;;5069860;28;20052;-66
2021/12/29 11:57:47;;;;;;;4.68;2.65;;;;;;;;;;5069779;28;20491;-66
2021/12/29 12:00:19;;;;;;;5.68;2.40;;;;;;;;;;5069763;28;20492;-65
2021/12/29 12:02:48;;;;;;;5.43;2.50;;;;;;;;;;5070356;28;20426;-66
2021/12/29 12:05:16;;;;;;;4.15;2.40;;;;;;;;;;5069828;28;20067;-66
2021/12/29 12:07:42;;;;;;;5.53;2.50;;;;;;;;;;5051735;28;20037;-65
2021/12/29 12:10:14;;;;;;;5.32;2.80;;;;;;;;;;5069712;28;20124;-66
2021/12/29 12:12:46;;;;;;;6.30;2.50;;;;;;;;;;5069855;28;20059;-66
2021/12/29 12:15:13;;;;;;;5.22;2.50;;;;;;;;;;5069741;28;20021;-66
2021/12/29 12:17:41;;;;;;;7.55;2.53;;;;;;;;;;5069662;28;20090;-66
2021/12/29 12:20:12;;;;;;;5.95;2.40;;;;;;;;;;5069973;28;20020;-66
2021/12/29 12:22:51;;;;;;;5.57;2.65;;;;;;;;;;5051625;28;20024;-66
2021/12/29 12:25:19;;;;;;;11.63;2.58;;;;;;;;;;5072622;28;20032;-66
2021/12/29 12:27:48;;;;;;;5.20;2.13;;;;;;;;;;5073135;28;20097;-66
2021/12/29 12:30:17;;;;;;;5.10;2.33;;;;;;;;;;5072988;28;20025;-66
2021/12/29 12:32:47;;;;;;;6.28;2.25;;;;;;;;;;5073751;28;20586;-66
2021/12/29 12:35:25;;;;;;;5.27;2.50;;;;;;;;;;5073046;28;20055;-66
2021/12/29 12:37:51;;;;;;;6.15;2.50;;;;;;;;;;5073101;28;20074;-66
2021/12/29 12:40:31;;;;;;;5.82;2.58;;;;;;;;;;5072764;28;20020;-66
2021/12/29 12:42:59;;;;;;;7.40;2.70;;;;;;;;;;5072757;28;20020;-66
2021/12/29 12:45:25;;;;;;;7.20;2.70;;;;;;;;;;5072919;28;20024;-66
2021/12/29 12:48:05;;;;;;;5.93;2.28;;;;;;;;;;5073014;28;20020;-66
2021/12/29 12:50:30;;;;;;;5.88;1.98;;;;;;;;;;5072742;28;20476;-75
2021/12/29 12:52:57;;;;;;;4.88;1.95;;;;;;;;;;5072857;28;20153;-66
2021/12/29 12:55:24;;;;;;;5.15;1.88;;;;;;;;;;5073105;28;20070;-66
2021/12/29 12:57:50;;;;;;;5.95;2.20;;;;;;;;;;5072247;28;20023;-66
2021/12/29 13:00:16;;;;;;;6.53;2.20;;;;;;;;;;5072409;28;20515;-66
2021/12/29 13:02:49;;;;;;;3.20;1.73;;;;;;;;;;5072677;28;20104;-66
2021/12/29 13:05:20;;;;;;;7.07;1.90;;;;;;;;;;5072507;28;20017;-66
2021/12/29 13:07:57;;;;;;;5.57;1.90;;;;;;;;;;5072569;28;20064;-66
2021/12/29 13:10:27;;;;;;;2.88;1.70;;;;;;;;;;5072236;28;20028;-66
2021/12/29 13:12:58;;;;;;;6.43;1.90;;;;;;;;;;5072438;28;20527;-66
2021/12/29 13:15:26;;;;;;;6.20;1.67;;;;;;;;;;5072340;28;20108;-66
2021/12/29 13:17:52;;;;;;;5.30;1.67;;;;;;;;;;5072176;28;20506;-66
2021/12/29 13:20:17;;;;;;;6.60;1.88;;;;;;;;;;5072180;28;20048;-66
2021/12/29 13:22:43;;;;;;;4.78;1.80;;;;;;;;;;5072207;28;20200;-66
2021/12/29 13:25:15;;;;;;;5.43;2.22;;;;;;;;;;5072145;28;20025;-66
2021/12/29 13:27:43;;;;;;;4.60;1.73;;;;;;;;;;5072391;28;20536;-66
2021/12/29 13:30:14;;;;;;;4.05;1.90;;;;;;;;;;5071854;28;20044;-66
2021/12/29 13:32:51;;;;;;;4.60;1.75;;;;;;;;;;5072055;28;20103;-67
2021/12/29 13:35:23;;;;;;;5.05;1.60;;;;;;;;;;5071100;28;20415;-66
2021/12/29 13:37:49;;;;;;;5.85;1.80;;;;;;;;;;5072240;28;20024;-66
2021/12/29 13:40:15;;;;;;;5.90;1.63;;;;;;;;;;5071620;28;20115;-66
2021/12/29 13:42:42;;;;;;;5.03;2.00;;;;;;;;;;5071936;28;20028;-66
2021/12/29 13:45:20;;;;;;;5.07;2.00;;;;;;;;;;5071872;28;20032;-66
2021/12/29 13:47:46;;;;;;;9.05;2.13;;;;;;;;;;5071843;28;20120;-66
2021/12/29 13:50:12;;;;;;;4.50;1.90;;;;;;;;;;5071541;28;20446;-68
2021/12/29 13:52:38;;;;;;;7.53;2.40;;;;;;;;;;5071481;28;20029;-66
2021/12/29 13:55:04;;;;;;;10.05;2.72;;;;;;;;;;5071584;28;20089;-66
2021/12/29 13:57:29;;;;;;;7.90;2.70;;;;;;;;;;5071495;28;20028;-66
2021/12/29 13:59:57;;;;;;;5.22;2.05;;;;;;;;;;5071466;28;20025;-66
2021/12/29 14:02:22;;;;;;;8.20;2.10;;;;;;;;;;5071163;28;20052;-66
2021/12/29 14:04:50;;;;;;;5.93;2.05;;;;;;;;;;5071466;28;20059;-66
2021/12/29 14:07:16;;;;;;;4.25;1.85;;;;;;;;;;5071409;28;20027;-66
2021/12/29 14:09:43;;;;;;;4.80;2.10;;;;;;;;;;5071391;28;20029;-66
2021/12/29 14:12:21;;;;;;;6.70;2.00;;;;;;;;;;5071279;28;20021;-66
2021/12/29 14:14:57;;;;;;;4.07;2.10;;;;;;;;;;5071113;28;20025;-66
2021/12/29 14:17:23;;;;;;;5.28;2.30;;;;;;;;;;5071227;28;20028;-66
2021/12/29 14:19:49;;;;;;;3.97;1.90;;;;;;;;;;5071251;28;20036;-67
2021/12/29 14:22:23;;;;;;;4.25;2.17;;;;;;;;;;5071175;28;20594;-66
2021/12/29 14:24:49;;;;;;;4.80;2.10;;;;;;;;;;5071058;28;20020;-66
2021/12/29 14:27:22;;;;;;;8.25;2.50;;;;;;;;;;5070937;28;20154;-66
2021/12/29 14:29:50;;;;;;;7.47;2.10;;;;;;;;;;5070898;28;20027;-66
2021/12/29 14:32:18;;;;;;;6.63;2.00;;;;;;;;;;5070824;28;20168;-66
2021/12/29 14:34:52;;;;;;;5.03;2.00;;;;;;;;;;5070906;28;20037;-66
2021/12/29 14:37:20;;;;;;;3.65;1.80;;;;;;;;;;5070783;28;20027;-67
2021/12/29 14:39:46;;;;;;;4.60;1.77;;;;;;;;;;5070573;28;20043;-66
2021/12/29 14:42:15;;;;;;;7.28;1.67;;;;;;;;;;5070880;28;20020;-66
2021/12/29 14:44:56;;;;;;;4.32;1.60;;;;;;;;;;5070818;28;20021;-66
2021/12/29 14:47:23;;;;;;;5.80;1.77;;;;;;;;;;5070799;28;20103;-66
2021/12/29 14:50:00;;;;;;;9.05;1.90;;;;;;;;;;5070716;28;20036;-67
2021/12/29 14:52:25;;;;;;;5.82;2.05;;;;;;;;;;5070348;28;20023;-66
2021/12/29 14:54:54;;;;;;;3.78;1.80;;;;;;;;;;5070732;28;20103;-66